Terminal Aerodrome Forecast
Issued by NWS Newport/Morehead City, NC

Home | Current Version | Previous Version | Graphics & Text | Print | Product List | Glossary On
Versions: 1 2 3 4 5 6 7 8 9 10 11 12 13 14 15 16 17 18 19 20
000
FTUS42 KMHX 111900 AAA
TAFEWN
TAF AMD
KEWN 111904Z 1119/1218 VRB05KT P6SM SCT015 BKN035
     FM120600 36003KT 4SM BR SCT010 BKN040
     FM121300 05005KT P6SM SCT030=

USA.gov is the U.S. government's official web portal to all federal, state and local government web resources and services.